createdAt,value
2018-12-03T00:01:06.535Z,13.40
2018-12-03T00:03:40.847Z,13.40
2018-12-03T00:06:15.154Z,13.50
2018-12-03T00:08:49.574Z,13.50
2018-12-03T00:11:23.965Z,13.50
2018-12-03T00:13:59.379Z,13.50
2018-12-03T00:16:33.602Z,13.50
2018-12-03T00:19:09.346Z,13.50
2018-12-03T00:21:43.561Z,13.50
2018-12-03T00:25:47.085Z,13.50
2018-12-03T00:28:22.325Z,13.50
2018-12-03T00:30:56.521Z,13.50
2018-12-03T00:33:31.044Z,13.50
2018-12-03T00:36:05.545Z,13.50
2018-12-03T00:38:41.037Z,13.50
2018-12-03T00:41:15.338Z,13.50
2018-12-03T00:43:49.666Z,13.50
2018-12-03T00:46:24.010Z,13.50
2018-12-03T00:48:58.353Z,13.50
2018-12-03T00:51:32.929Z,13.40
2018-12-03T00:54:07.148Z,13.40
2018-12-03T00:56:41.463Z,13.40
2018-12-03T00:59:15.741Z,13.40
2018-12-03T01:01:50.076Z,13.30
2018-12-03T01:04:24.393Z,13.30
2018-12-03T01:06:59.038Z,13.20
2018-12-03T01:09:33.361Z,13.20
2018-12-03T01:12:07.669Z,13.10
2018-12-03T01:14:42.017Z,13.00
2018-12-03T01:17:16.297Z,13.00
2018-12-03T01:19:50.622Z,13.00
2018-12-03T01:22:25.137Z,13.00
2018-12-03T01:24:59.461Z,13.00
2018-12-03T01:27:33.657Z,13.00
2018-12-03T01:30:10.418Z,13.00
2018-12-03T01:32:44.673Z,13.00
2018-12-03T01:35:19.157Z,13.00
2018-12-03T01:37:53.477Z,12.90
2018-12-03T01:40:29.033Z,12.90
2018-12-03T01:43:03.342Z,12.90
2018-12-03T01:45:37.692Z,12.90
2018-12-03T01:48:11.941Z,12.90
2018-12-03T01:50:46.372Z,12.90
2018-12-03T01:53:20.689Z,13.00
2018-12-03T01:55:55.060Z,13.00
2018-12-03T01:58:30.326Z,13.00
2018-12-03T02:01:04.673Z,13.10
2018-12-03T02:03:38.987Z,13.10
2018-12-03T02:06:13.306Z,13.10
2018-12-03T02:08:47.544Z,13.20
2018-12-03T02:11:21.897Z,13.10
2018-12-03T02:13:56.294Z,13.20
2018-12-03T02:16:30.592Z,13.20
2018-12-03T02:19:05.524Z,13.20
2018-12-03T02:21:40.733Z,13.20
2018-12-03T02:24:15.066Z,13.30
2018-12-03T02:26:50.453Z,13.30
2018-12-03T02:29:24.711Z,13.30
2018-12-03T02:31:59.016Z,13.30
2018-12-03T02:34:33.141Z,13.30
2018-12-03T02:37:07.444Z,13.40
2018-12-03T02:39:41.975Z,13.30
2018-12-03T02:42:16.382Z,13.30
2018-12-03T02:44:50.550Z,13.30
2018-12-03T02:47:24.997Z,13.40
2018-12-03T02:49:59.442Z,13.40
2018-12-03T02:52:33.843Z,13.40
2018-12-03T02:55:10.083Z,13.40
2018-12-03T02:57:44.650Z,13.30
2018-12-03T03:00:18.997Z,13.30
2018-12-03T03:02:53.239Z,13.30
2018-12-03T03:05:28.727Z,13.30
2018-12-03T03:08:03.096Z,13.30
2018-12-03T03:10:37.426Z,13.30
2018-12-03T03:13:11.752Z,13.30
2018-12-03T03:15:46.033Z,13.30
2018-12-03T03:18:20.446Z,13.30
2018-12-03T03:20:54.767Z,13.30
2018-12-03T03:23:29.241Z,13.30
2018-12-03T03:26:49.890Z,13.40
2018-12-03T03:29:52.828Z,13.40
2018-12-03T03:32:54.398Z,13.40
2018-12-03T03:35:55.953Z,13.40
2018-12-03T03:38:57.787Z,13.50
2018-12-03T03:42:02.329Z,13.50
2018-12-03T03:47:52.910Z,13.40
2018-12-03T03:50:54.639Z,13.40
2018-12-03T03:53:56.689Z,13.20
2018-12-03T04:00:04.523Z,13.00
2018-12-03T04:03:09.270Z,13.00
2018-12-03T04:06:11.491Z,13.00
2018-12-03T04:09:13.387Z,13.00
2018-12-03T04:12:14.836Z,13.00
2018-12-03T04:18:08.981Z,13.00
2018-12-03T04:21:10.424Z,12.90
2018-12-03T04:24:22.330Z,13.00
2018-12-03T04:27:33.598Z,13.00
2018-12-03T04:30:36.067Z,13.00
2018-12-03T04:33:42.346Z,13.00
2018-12-03T04:36:43.609Z,13.00
2018-12-03T04:39:45.200Z,13.00
2018-12-03T04:42:46.944Z,13.00
2018-12-03T04:48:57.794Z,13.10
2018-12-03T04:51:59.667Z,13.20
2018-12-03T04:55:00.821Z,13.20
2018-12-03T04:58:02.007Z,13.20
2018-12-03T05:01:03.704Z,13.10
2018-12-03T05:04:03.465Z,13.10
2018-12-03T05:07:25.387Z,13.10
2018-12-03T05:10:26.733Z,13.10
2018-12-03T05:13:28.239Z,13.10
2018-12-03T05:16:28.019Z,13.10
2018-12-03T05:19:29.742Z,13.20
2018-12-03T05:22:31.574Z,13.10
2018-12-03T05:25:33.565Z,13.10
2018-12-03T05:34:54.262Z,13.10
2018-12-03T05:37:55.758Z,13.10
2018-12-03T05:40:57.439Z,13.10
2018-12-03T05:43:59.028Z,13.10
2018-12-03T05:47:00.235Z,13.10
2018-12-03T05:49:59.711Z,13.00
2018-12-03T05:53:01.116Z,13.10
2018-12-03T05:56:00.870Z,13.10
2018-12-03T05:59:02.783Z,13.10
2018-12-03T06:02:09.183Z,13.00
2018-12-03T06:05:10.882Z,13.00
2018-12-03T06:11:28.559Z,13.10
2018-12-03T06:14:28.335Z,13.10
2018-12-03T06:17:30.110Z,13.10
2018-12-03T06:20:36.713Z,13.20
2018-12-03T06:23:37.986Z,13.10
2018-12-03T06:33:47.038Z,13.10
2018-12-03T06:36:47.709Z,13.10
2018-12-03T06:39:49.803Z,13.10
2018-12-03T06:42:50.230Z,13.00
2018-12-03T06:45:50.143Z,13.00
2018-12-03T06:48:50.726Z,13.00
2018-12-03T06:55:31.460Z,12.90
2018-12-03T06:58:31.954Z,12.90
2018-12-03T07:01:33.195Z,12.90
2018-12-03T07:04:33.418Z,12.80
2018-12-03T07:10:59.511Z,12.70
2018-12-03T07:14:03.967Z,12.70
2018-12-03T07:17:04.742Z,12.70
2018-12-03T07:20:04.796Z,12.80
2018-12-03T07:33:05.822Z,12.70
2018-12-03T07:36:05.386Z,12.70
2018-12-03T07:42:33.547Z,12.70
2018-12-03T07:45:54.047Z,12.70
2018-12-03T07:52:21.352Z,12.60
2018-12-03T07:55:21.734Z,12.60
2018-12-03T08:02:01.302Z,12.50
2018-12-03T08:05:02.876Z,12.90
2018-12-03T08:08:04.501Z,12.80
2018-12-03T08:11:06.688Z,12.90
2018-12-03T08:14:06.863Z,12.90
2018-12-03T08:17:16.107Z,12.90
2018-12-03T08:20:44.045Z,13.20
2018-12-03T08:23:57.258Z,13.10
2018-12-03T08:33:38.926Z,12.90
2018-12-03T08:36:47.845Z,12.80
2018-12-03T08:39:57.067Z,12.80
2018-12-03T08:43:23.590Z,12.80
2018-12-03T08:46:50.386Z,12.80
2018-12-03T08:49:58.634Z,13.00
2018-12-03T08:56:36.638Z,13.30
2018-12-03T09:02:33.202Z,13.50
2018-12-03T09:05:42.115Z,13.50
2018-12-03T09:08:50.186Z,13.40
2018-12-03T09:11:58.811Z,13.30
2018-12-03T09:15:24.498Z,13.30
2018-12-03T09:19:08.119Z,13.20
2018-12-03T09:22:33.920Z,13.30
2018-12-03T09:25:58.830Z,13.60
2018-12-03T09:29:06.971Z,13.80
2018-12-03T09:32:16.343Z,14.20
2018-12-03T09:38:28.062Z,14.80
2018-12-03T09:41:37.158Z,14.40
2018-12-03T09:44:46.314Z,14.20
2018-12-03T09:47:55.333Z,14.00
2018-12-03T09:51:04.567Z,13.90
2018-12-03T09:54:13.822Z,13.90
2018-12-03T09:57:22.718Z,13.80
2018-12-03T10:00:33.666Z,13.70
2018-12-03T10:03:43.737Z,13.60
2018-12-03T10:06:52.635Z,13.60
2018-12-03T10:10:01.524Z,13.60
2018-12-03T10:13:10.419Z,13.60
2018-12-03T10:16:19.317Z,13.50
2018-12-03T10:19:28.290Z,13.40
2018-12-03T10:22:37.523Z,13.40
2018-12-03T10:29:01.998Z,14.20
2018-12-03T10:32:33.175Z,15.70
2018-12-03T10:39:33.062Z,17.10
2018-12-03T10:42:43.771Z,17.80
2018-12-03T10:45:52.654Z,17.60
2018-12-03T10:49:02.823Z,16.80
2018-12-03T10:55:30.830Z,15.40
2018-12-03T11:02:51.280Z,14.70
2018-12-03T11:06:21.315Z,16.00
2018-12-03T11:09:33.111Z,16.50
2018-12-03T11:12:41.521Z,15.30
2018-12-03T11:18:42.534Z,14.80
2018-12-03T11:21:51.622Z,14.90
2018-12-03T11:31:09.083Z,14.80
2018-12-03T11:34:21.706Z,14.60
2018-12-03T11:37:31.071Z,14.40
2018-12-03T11:44:12.301Z,14.00
2018-12-03T11:47:24.289Z,13.90
2018-12-03T11:50:56.047Z,13.90
2018-12-03T11:57:56.178Z,13.90
2018-12-03T12:01:03.721Z,14.00
2018-12-03T12:07:47.203Z,14.00
2018-12-03T12:13:45.901Z,13.90
2018-12-03T12:16:54.778Z,13.90
2018-12-03T12:23:57.422Z,13.90
2018-12-03T12:27:07.523Z,13.80
2018-12-03T12:36:23.007Z,13.50
2018-12-03T12:39:31.897Z,13.50
2018-12-03T12:42:41.186Z,13.40
2018-12-03T12:45:51.367Z,13.50
2018-12-03T12:49:00.263Z,13.40
2018-12-03T12:52:09.158Z,13.40
2018-12-03T12:55:18.050Z,13.50
2018-12-03T12:58:27.183Z,13.70
2018-12-03T13:01:36.058Z,13.60
2018-12-03T13:04:46.672Z,13.40
2018-12-03T13:07:55.842Z,13.40
2018-12-03T13:13:56.422Z,13.40
2018-12-03T13:23:56.915Z,13.20
2018-12-03T13:27:04.767Z,13.10
2018-12-03T13:30:14.357Z,13.00
2018-12-03T13:33:23.618Z,13.00
2018-12-03T13:36:32.837Z,12.80
2018-12-03T13:40:19.543Z,12.50
2018-12-03T13:43:27.064Z,12.40
2018-12-03T13:49:30.338Z,11.80
2018-12-03T13:52:56.931Z,11.60
2018-12-03T13:56:06.472Z,11.50
2018-12-03T13:59:15.370Z,11.50
2018-12-03T14:02:29.604Z,11.50
2018-12-03T14:09:10.439Z,11.50
2018-12-03T14:12:38.471Z,11.70
2018-12-03T14:16:06.394Z,11.70
2018-12-03T14:19:37.386Z,11.80
2018-12-03T14:23:04.236Z,11.80
2018-12-03T14:26:13.734Z,11.90
2018-12-03T14:29:23.901Z,11.80
2018-12-03T14:32:49.067Z,11.90
2018-12-03T14:35:39.040Z,12.00
2018-12-03T14:38:50.275Z,12.00
2018-12-03T14:41:59.251Z,12.00
2018-12-03T14:45:09.630Z,12.00
2018-12-03T14:51:07.918Z,12.00
2018-12-03T14:54:16.819Z,11.90
2018-12-03T14:57:23.855Z,11.90
2018-12-03T15:03:32.735Z,11.80
2018-12-03T15:06:59.647Z,11.80
2018-12-03T15:10:09.100Z,11.80
2018-12-03T15:13:18.083Z,11.80
2018-12-03T15:16:26.986Z,11.80
2018-12-03T15:26:25.579Z,11.80
2018-12-03T15:29:39.779Z,11.80
2018-12-03T15:35:59.379Z,11.70
2018-12-03T15:39:09.243Z,11.70
2018-12-03T15:42:16.783Z,11.70
2018-12-03T15:45:25.987Z,11.60
2018-12-03T15:48:35.141Z,11.60
2018-12-03T15:51:44.055Z,11.60
2018-12-03T16:02:01.732Z,11.50
2018-12-03T16:05:11.971Z,11.40
2018-12-03T16:08:01.935Z,11.50
2018-12-03T16:11:11.186Z,11.50
2018-12-03T16:14:21.712Z,11.40
2018-12-03T16:17:30.770Z,11.40
2018-12-03T16:20:39.669Z,11.40
2018-12-03T16:23:48.850Z,11.40
2018-12-03T16:26:57.746Z,11.50
2018-12-03T16:30:25.683Z,11.50
2018-12-03T16:33:35.246Z,11.50
2018-12-03T16:36:44.155Z,11.50
2018-12-03T16:39:54.138Z,11.60
2018-12-03T16:45:56.459Z,11.60
2018-12-03T16:49:04.432Z,11.50
2018-12-03T16:52:13.331Z,11.50
2018-12-03T16:55:22.511Z,11.60
2018-12-03T16:58:31.666Z,11.50
2018-12-03T17:11:12.374Z,11.50
2018-12-03T17:14:21.530Z,11.50
2018-12-03T17:17:30.461Z,11.60
2018-12-03T17:20:58.472Z,11.60
2018-12-03T17:28:03.772Z,11.60
2018-12-03T17:31:12.681Z,11.70
2018-12-03T17:34:21.972Z,11.70
2018-12-03T17:40:47.763Z,11.70
2018-12-03T17:43:56.653Z,11.80
2018-12-03T17:47:05.651Z,11.90
2018-12-03T17:50:14.902Z,12.00
2018-12-03T17:53:24.154Z,12.10
2018-12-03T17:56:33.050Z,12.10
2018-12-03T18:03:12.330Z,12.10
2018-12-03T18:06:21.475Z,12.10
2018-12-03T18:09:40.371Z,12.10
2018-12-03T18:12:49.702Z,12.10
2018-12-03T18:16:03.949Z,12.20
2018-12-03T18:19:12.858Z,12.20
2018-12-03T18:22:22.063Z,12.30
2018-12-03T18:25:29.194Z,12.30
2018-12-03T18:28:38.375Z,12.30
2018-12-03T18:31:47.556Z,12.20
2018-12-03T18:34:56.450Z,12.20
2018-12-03T18:41:16.018Z,12.10
2018-12-03T18:44:24.986Z,12.10
2018-12-03T18:47:18.037Z,12.10
2018-12-03T18:50:28.726Z,12.10
2018-12-03T18:53:38.654Z,12.20
2018-12-03T18:56:45.862Z,12.20
2018-12-03T19:06:25.143Z,12.30
2018-12-03T19:13:04.854Z,12.30
2018-12-03T19:16:14.440Z,12.30
2018-12-03T19:19:23.792Z,12.30
2018-12-03T19:22:32.698Z,12.30
2018-12-03T19:25:41.594Z,12.40
2018-12-03T19:28:50.742Z,12.40
2018-12-03T19:32:00.216Z,12.30
2018-12-03T19:35:09.198Z,12.20
2018-12-03T19:38:19.591Z,12.10
2018-12-03T19:41:29.598Z,12.00
2018-12-03T19:44:37.623Z,12.00
2018-12-03T19:47:48.294Z,11.90
2018-12-03T19:50:57.186Z,11.90
2018-12-03T19:54:04.712Z,11.90
2018-12-03T19:57:14.119Z,12.00
2018-12-03T20:00:23.098Z,12.00
2018-12-03T20:03:32.006Z,12.00
2018-12-03T20:06:40.919Z,12.00
2018-12-03T20:09:51.238Z,12.00
2018-12-03T20:12:57.892Z,12.10
2018-12-03T20:19:27.721Z,12.00
2018-12-03T20:22:56.195Z,12.00
2018-12-03T20:29:59.282Z,11.80
2018-12-03T20:33:13.139Z,11.80
2018-12-03T20:40:15.466Z,11.70
2018-12-03T20:43:26.215Z,11.70
2018-12-03T20:46:52.310Z,11.70
2018-12-03T20:50:20.539Z,11.80
2018-12-03T20:53:30.903Z,11.80
2018-12-03T20:56:41.185Z,11.80
2018-12-03T20:59:50.435Z,11.90
2018-12-03T21:12:08.652Z,11.80
2018-12-03T21:19:20.295Z,11.80
2018-12-03T21:22:29.197Z,11.80
2018-12-03T21:25:38.110Z,11.90
2018-12-03T21:28:47.103Z,11.80
2018-12-03T21:31:54.819Z,11.80
2018-12-03T21:35:04.057Z,11.80
2018-12-03T21:38:13.517Z,11.80
2018-12-03T21:41:22.671Z,11.70
2018-12-03T21:44:31.922Z,11.50
2018-12-03T21:47:41.143Z,11.50
2018-12-03T21:50:50.347Z,11.60
2018-12-03T21:53:58.145Z,11.50
2018-12-03T21:57:10.776Z,11.50
2018-12-03T22:03:38.158Z,11.40
2018-12-03T22:10:50.694Z,11.40
2018-12-03T22:14:16.320Z,11.50
2018-12-03T22:17:25.214Z,11.50
2018-12-03T22:20:34.383Z,11.50
2018-12-03T22:26:43.735Z,11.40
2018-12-03T22:29:52.639Z,11.40
2018-12-03T22:33:00.481Z,11.40
2018-12-03T22:36:07.950Z,11.40
2018-12-03T22:39:16.859Z,11.40
2018-12-03T22:42:26.001Z,11.40
2018-12-03T22:45:34.999Z,11.40
2018-12-03T22:49:01.399Z,11.40
2018-12-03T22:52:28.028Z,11.40
2018-12-03T22:55:37.442Z,11.40
2018-12-03T22:58:46.574Z,11.40
2018-12-03T23:05:31.166Z,11.20
2018-12-03T23:08:40.070Z,11.10
2018-12-03T23:11:49.351Z,11.00
2018-12-03T23:14:56.775Z,11.00
2018-12-03T23:18:11.087Z,11.00
2018-12-03T23:21:20.855Z,10.90
2018-12-03T23:24:29.838Z,10.90
2018-12-03T23:27:38.991Z,10.80
2018-12-03T23:30:47.889Z,10.70
2018-12-03T23:38:01.586Z,10.60
2018-12-03T23:41:10.499Z,10.40
2018-12-03T23:47:10.274Z,10.00
2018-12-03T23:50:19.409Z,9.80
2018-12-03T23:53:28.299Z,9.40
2018-12-03T23:56:42.579Z,9.20
